sensor_id;sensor_type;location;lat;lon;timestamp;pressure;altitude;pressure_sealevel;temperature;humidity
10310;BME280;5200;43.236;27.986;2024-01-15T00:02:07;99462.78;;;2.37;53.56
10310;BME280;5200;43.236;27.986;2024-01-15T00:04:36;99465.22;;;2.40;52.93
10310;BME280;5200;43.236;27.986;2024-01-15T00:07:03;99460.34;;;2.48;52.27
10310;BME280;5200;43.236;27.986;2024-01-15T00:09:30;99460.88;;;2.53;51.72
10310;BME280;5200;43.236;27.986;2024-01-15T00:11:59;99462.25;;;2.59;51.69
10310;BME280;5200;43.236;27.986;2024-01-15T00:14:26;99468.28;;;2.60;52.60
10310;BME280;5200;43.236;27.986;2024-01-15T00:16:53;99454.34;;;2.61;52.49
10310;BME280;5200;43.236;27.986;2024-01-15T00:19:21;99469.75;;;2.64;53.10
10310;BME280;5200;43.236;27.986;2024-01-15T00:21:49;99456.84;;;2.62;52.67
10310;BME280;5200;43.236;27.986;2024-01-15T00:24:16;99455.91;;;2.63;52.62
10310;BME280;5200;43.236;27.986;2024-01-15T00:26:43;99460.19;;;2.64;51.92
10310;BME280;5200;43.236;27.986;2024-01-15T00:29:11;99472.34;;;2.64;51.78
10310;BME280;5200;43.236;27.986;2024-01-15T00:31:38;99473.25;;;2.63;52.22
10310;BME280;5200;43.236;27.986;2024-01-15T00:34:05;99473.84;;;2.53;52.55
10310;BME280;5200;43.236;27.986;2024-01-15T00:36:31;99472.16;;;2.40;52.77
10310;BME280;5200;43.236;27.986;2024-01-15T00:38:58;99476.47;;;2.26;52.93
10310;BME280;5200;43.236;27.986;2024-01-15T00:41:25;99487.00;;;2.10;53.84
10310;BME280;5200;43.236;27.986;2024-01-15T00:43:53;99477.75;;;1.92;54.78
10310;BME280;5200;43.236;27.986;2024-01-15T00:46:21;99486.78;;;1.72;59.18
10310;BME280;5200;43.236;27.986;2024-01-15T00:48:48;99493.09;;;1.54;62.68
10310;BME280;5200;43.236;27.986;2024-01-15T00:51:15;99490.78;;;1.35;65.88
10310;BME280;5200;43.236;27.986;2024-01-15T00:53:41;99488.34;;;1.17;71.94
10310;BME280;5200;43.236;27.986;2024-01-15T00:56:08;99487.41;;;1.04;75.02
10310;BME280;5200;43.236;27.986;2024-01-15T00:58:35;99491.69;;;0.89;77.81
10310;BME280;5200;43.236;27.986;2024-01-15T01:01:02;99483.81;;;0.76;79.72
10310;BME280;5200;43.236;27.986;2024-01-15T01:03:30;99491.09;;;0.70;80.90
10310;BME280;5200;43.236;27.986;2024-01-15T01:05:57;99489.03;;;0.60;81.28
10310;BME280;5200;43.236;27.986;2024-01-15T01:08:24;99479.94;;;0.53;81.24
10310;BME280;5200;43.236;27.986;2024-01-15T01:10:50;99481.03;;;0.49;80.49
10310;BME280;5200;43.236;27.986;2024-01-15T01:13:17;99488.72;;;0.51;78.75
10310;BME280;5200;43.236;27.986;2024-01-15T01:15:44;99472.63;;;0.46;76.56
10310;BME280;5200;43.236;27.986;2024-01-15T01:18:11;99481.44;;;0.57;74.49
10310;BME280;5200;43.236;27.986;2024-01-15T01:20:39;99473.59;;;0.59;73.26
10310;BME280;5200;43.236;27.986;2024-01-15T01:23:06;99477.41;;;0.68;71.67
10310;BME280;5200;43.236;27.986;2024-01-15T01:25:32;99478.72;;;0.75;69.89
10310;BME280;5200;43.236;27.986;2024-01-15T01:27:59;99473.19;;;0.81;68.42
10310;BME280;5200;43.236;27.986;2024-01-15T01:30:26;99471.91;;;0.88;67.39
10310;BME280;5200;43.236;27.986;2024-01-15T01:32:53;99473.16;;;0.97;66.12
10310;BME280;5200;43.236;27.986;2024-01-15T01:35:20;99467.59;;;1.03;65.24
10310;BME280;5200;43.236;27.986;2024-01-15T01:37:48;99469.75;;;1.11;63.75
10310;BME280;5200;43.236;27.986;2024-01-15T01:40:15;99465.41;;;1.11;62.98
10310;BME280;5200;43.236;27.986;2024-01-15T01:42:41;99477.22;;;1.15;62.12
10310;BME280;5200;43.236;27.986;2024-01-15T01:45:09;99469.38;;;1.17;61.15
10310;BME280;5200;43.236;27.986;2024-01-15T01:47:36;99470.84;;;1.21;60.98
10310;BME280;5200;43.236;27.986;2024-01-15T01:50:04;99466.41;;;1.23;60.20
10310;BME280;5200;43.236;27.986;2024-01-15T01:52:31;99464.47;;;1.26;60.04
10310;BME280;5200;43.236;27.986;2024-01-15T01:55:00;99465.31;;;1.27;58.93
10310;BME280;5200;43.236;27.986;2024-01-15T01:57:29;99465.59;;;1.37;58.08
10310;BME280;5200;43.236;27.986;2024-01-15T01:59:58;99464.66;;;1.38;58.01
10310;BME280;5200;43.236;27.986;2024-01-15T02:02:25;99463.75;;;1.39;57.75
10310;BME280;5200;43.236;27.986;2024-01-15T02:04:52;99461.88;;;1.41;57.56
10310;BME280;5200;43.236;27.986;2024-01-15T02:07:19;99456.31;;;1.47;57.14
10310;BME280;5200;43.236;27.986;2024-01-15T02:09:46;99463.09;;;1.50;56.38
10310;BME280;5200;43.236;27.986;2024-01-15T02:12:15;99454.09;;;1.55;56.25
10310;BME280;5200;43.236;27.986;2024-01-15T02:14:42;99459.28;;;1.55;56.27
10310;BME280;5200;43.236;27.986;2024-01-15T02:17:08;99453.91;;;1.58;56.21
10310;BME280;5200;43.236;27.986;2024-01-15T02:19:35;99440.41;;;1.53;56.36
10310;BME280;5200;43.236;27.986;2024-01-15T02:22:02;99445.41;;;1.56;56.54
10310;BME280;5200;43.236;27.986;2024-01-15T02:24:30;99438.53;;;1.55;56.55
10310;BME280;5200;43.236;27.986;2024-01-15T02:26:58;99447.25;;;1.54;56.95
10310;BME280;5200;43.236;27.986;2024-01-15T02:29:24;99449.09;;;1.52;56.78
10310;BME280;5200;43.236;27.986;2024-01-15T02:31:51;99456.25;;;1.48;57.14
10310;BME280;5200;43.236;27.986;2024-01-15T02:34:18;99448.75;;;1.44;57.43
10310;BME280;5200;43.236;27.986;2024-01-15T02:36:45;99451.69;;;1.38;57.41
10310;BME280;5200;43.236;27.986;2024-01-15T02:39:12;99456.59;;;1.28;57.78
10310;BME280;5200;43.236;27.986;2024-01-15T02:41:40;99439.22;;;1.16;58.16
10310;BME280;5200;43.236;27.986;2024-01-15T02:44:07;99445.56;;;1.10;58.22
10310;BME280;5200;43.236;27.986;2024-01-15T02:46:34;99455.03;;;1.11;58.72
10310;BME280;5200;43.236;27.986;2024-01-15T02:49:01;99449.19;;;1.08;58.68
10310;BME280;5200;43.236;27.986;2024-01-15T02:51:27;99458.72;;;1.07;58.96
10310;BME280;5200;43.236;27.986;2024-01-15T02:53:54;99446.69;;;1.06;59.17
10310;BME280;5200;43.236;27.986;2024-01-15T02:56:21;99451.88;;;1.06;58.95
10310;BME280;5200;43.236;27.986;2024-01-15T02:58:49;99447.53;;;1.07;59.33
10310;BME280;5200;43.236;27.986;2024-01-15T03:01:18;99448.53;;;1.04;59.12
10310;BME280;5200;43.236;27.986;2024-01-15T03:03:45;99450.47;;;1.00;59.52
10310;BME280;5200;43.236;27.986;2024-01-15T03:06:12;99447.25;;;0.97;59.63
10310;BME280;5200;43.236;27.986;2024-01-15T03:08:39;99450.94;;;0.93;60.35
10310;BME280;5200;43.236;27.986;2024-01-15T03:11:05;99447.78;;;0.88;60.64
10310;BME280;5200;43.236;27.986;2024-01-15T03:13:35;99452.22;;;0.86;60.90
10310;BME280;5200;43.236;27.986;2024-01-15T03:16:04;99449.81;;;0.82;61.02
10310;BME280;5200;43.236;27.986;2024-01-15T03:18:31;99454.31;;;0.79;61.03
10310;BME280;5200;43.236;27.986;2024-01-15T03:20:58;99457.19;;;0.74;61.57
10310;BME280;5200;43.236;27.986;2024-01-15T03:23:26;99455.53;;;0.73;61.62
10310;BME280;5200;43.236;27.986;2024-01-15T03:25:53;99462.34;;;0.74;61.63
10310;BME280;5200;43.236;27.986;2024-01-15T03:28:20;99448.84;;;0.69;62.05
10310;BME280;5200;43.236;27.986;2024-01-15T03:30:47;99459.00;;;0.72;62.21
10310;BME280;5200;43.236;27.986;2024-01-15T03:33:15;99456.53;;;0.71;62.46
10310;BME280;5200;43.236;27.986;2024-01-15T03:35:42;99450.50;;;0.70;62.41
10310;BME280;5200;43.236;27.986;2024-01-15T03:38:09;99441.16;;;0.68;62.54
10310;BME280;5200;43.236;27.986;2024-01-15T03:40:35;99445.50;;;0.67;62.94
10310;BME280;5200;43.236;27.986;2024-01-15T03:43:02;99439.69;;;0.63;63.58
10310;BME280;5200;43.236;27.986;2024-01-15T03:45:29;99456.63;;;0.69;63.70
10310;BME280;5200;43.236;27.986;2024-01-15T03:47:56;99443.84;;;0.66;64.57
10310;BME280;5200;43.236;27.986;2024-01-15T03:50:24;99449.75;;;0.68;64.62
10310;BME280;5200;43.236;27.986;2024-01-15T03:52:51;99453.09;;;0.70;65.04
10310;BME280;5200;43.236;27.986;2024-01-15T03:55:18;99449.66;;;0.70;65.70
10310;BME280;5200;43.236;27.986;2024-01-15T03:57:45;99448.66;;;0.72;66.24
10310;BME280;5200;43.236;27.986;2024-01-15T04:00:13;99445.16;;;0.73;66.27
10310;BME280;5200;43.236;27.986;2024-01-15T04:02:42;99445.16;;;0.73;66.67
10310;BME280;5200;43.236;27.986;2024-01-15T04:05:09;99442.38;;;0.76;66.82
10310;BME280;5200;43.236;27.986;2024-01-15T04:07:37;99457.66;;;0.81;66.55
10310;BME280;5200;43.236;27.986;2024-01-15T04:10:05;99456.72;;;0.82;66.70
10310;BME280;5200;43.236;27.986;2024-01-15T04:12:31;99444.44;;;0.86;66.73
10310;BME280;5200;43.236;27.986;2024-01-15T04:14:58;99446.09;;;0.87;67.13
10310;BME280;5200;43.236;27.986;2024-01-15T04:17:25;99443.50;;;0.87;67.14
10310;BME280;5200;43.236;27.986;2024-01-15T04:19:52;99443.50;;;0.87;66.96
10310;BME280;5200;43.236;27.986;2024-01-15T04:22:19;99445.81;;;0.91;66.98
10310;BME280;5200;43.236;27.986;2024-01-15T04:24:47;99449.84;;;0.97;66.93
10310;BME280;5200;43.236;27.986;2024-01-15T04:27:14;99452.22;;;1.00;66.92
10310;BME280;5200;43.236;27.986;2024-01-15T04:29:41;99446.69;;;1.06;67.04
10310;BME280;5200;43.236;27.986;2024-01-15T04:32:09;99442.72;;;1.15;66.76
10310;BME280;5200;43.236;27.986;2024-01-15T04:34:36;99440.78;;;1.18;66.87
10310;BME280;5200;43.236;27.986;2024-01-15T04:37:03;99442.06;;;1.25;66.71
10310;BME280;5200;43.236;27.986;2024-01-15T04:39:30;99440.69;;;1.34;66.35
10310;BME280;5200;43.236;27.986;2024-01-15T04:41:58;99445.28;;;1.43;66.08
10310;BME280;5200;43.236;27.986;2024-01-15T04:44:25;99442.25;;;1.51;66.06
10310;BME280;5200;43.236;27.986;2024-01-15T04:46:52;99450.22;;;1.62;66.25
10310;BME280;5200;43.236;27.986;2024-01-15T04:49:18;99445.28;;;1.72;65.60
10310;BME280;5200;43.236;27.986;2024-01-15T04:51:45;99450.00;;;1.80;65.36
10310;BME280;5200;43.236;27.986;2024-01-15T04:54:12;99442.22;;;1.80;65.51
10310;BME280;5200;43.236;27.986;2024-01-15T04:56:43;99444.16;;;1.90;65.39
10310;BME280;5200;43.236;27.986;2024-01-15T04:59:11;99445.81;;;1.92;65.00
10310;BME280;5200;43.236;27.986;2024-01-15T05:01:38;99439.03;;;1.89;64.42
10310;BME280;5200;43.236;27.986;2024-01-15T05:04:04;99440.53;;;1.93;64.41
10310;BME280;5200;43.236;27.986;2024-01-15T05:06:31;99436.25;;;1.92;64.86
10310;BME280;5200;43.236;27.986;2024-01-15T05:08:58;99442.91;;;1.96;64.78
10310;BME280;5200;43.236;27.986;2024-01-15T05:11:25;99441.97;;;1.97;64.42
10310;BME280;5200;43.236;27.986;2024-01-15T05:13:52;99436.91;;;1.96;64.57
10310;BME280;5200;43.236;27.986;2024-01-15T05:16:20;99435.88;;;1.98;64.40
10310;BME280;5200;43.236;27.986;2024-01-15T05:18:47;99444.41;;;2.00;64.80
10310;BME280;5200;43.236;27.986;2024-01-15T05:21:14;99435.88;;;1.98;64.41
10310;BME280;5200;43.236;27.986;2024-01-15T05:23:40;99431.44;;;2.00;64.90
10310;BME280;5200;43.236;27.986;2024-01-15T05:26:07;99440.84;;;2.01;64.76
10310;BME280;5200;43.236;27.986;2024-01-15T05:28:35;99437.97;;;2.06;64.76
10310;BME280;5200;43.236;27.986;2024-01-15T05:31:02;99444.00;;;2.06;64.71
10310;BME280;5200;43.236;27.986;2024-01-15T05:33:31;99447.31;;;2.08;65.09
10310;BME280;5200;43.236;27.986;2024-01-15T05:35:57;99436.13;;;2.08;65.37
10310;BME280;5200;43.236;27.986;2024-01-15T05:38:25;99438.13;;;2.17;64.95
10310;BME280;5200;43.236;27.986;2024-01-15T05:40:51;99439.41;;;2.24;64.94
10310;BME280;5200;43.236;27.986;2024-01-15T05:43:18;99437.88;;;2.35;63.65
10310;BME280;5200;43.236;27.986;2024-01-15T05:45:45;99430.44;;;2.43;63.23
10310;BME280;5200;43.236;27.986;2024-01-15T05:48:12;99432.66;;;2.62;62.83
10310;BME280;5200;43.236;27.986;2024-01-15T05:50:41;99440.16;;;2.79;61.91
10310;BME280;5200;43.236;27.986;2024-01-15T05:53:08;99439.44;;;2.90;60.73
10310;BME280;5200;43.236;27.986;2024-01-15T05:55:36;99431.34;;;2.94;60.55
10310;BME280;5200;43.236;27.986;2024-01-15T05:58:03;99434.13;;;3.17;59.76
10310;BME280;5200;43.236;27.986;2024-01-15T06:00:30;99441.81;;;3.31;58.79
10310;BME280;5200;43.236;27.986;2024-01-15T06:02:58;99434.84;;;3.45;57.74
10310;BME280;5200;43.236;27.986;2024-01-15T06:05:25;99435.66;;;3.58;56.75
10310;BME280;5200;43.236;27.986;2024-01-15T06:07:53;99433.16;;;3.69;55.90
10310;BME280;5200;43.236;27.986;2024-01-15T06:10:20;99434.88;;;3.81;55.98
10310;BME280;5200;43.236;27.986;2024-01-15T06:12:47;99436.38;;;3.97;54.63
10310;BME280;5200;43.236;27.986;2024-01-15T06:15:14;99436.75;;;4.16;53.62
10310;BME280;5200;43.236;27.986;2024-01-15T06:17:41;99439.75;;;4.34;52.16
10310;BME280;5200;43.236;27.986;2024-01-15T06:20:08;99433.31;;;4.51;51.58
10310;BME280;5200;43.236;27.986;2024-01-15T06:22:35;99432.44;;;4.63;50.19
10310;BME280;5200;43.236;27.986;2024-01-15T06:25:06;99433.75;;;4.69;49.41
10310;BME280;5200;43.236;27.986;2024-01-15T06:27:33;99443.03;;;4.84;49.09
10310;BME280;5200;43.236;27.986;2024-01-15T06:30:00;99432.13;;;4.91;48.65
10310;BME280;5200;43.236;27.986;2024-01-15T06:32:27;99434.06;;;5.11;48.10
10310;BME280;5200;43.236;27.986;2024-01-15T06:34:54;99432.66;;;5.29;47.97
10310;BME280;5200;43.236;27.986;2024-01-15T06:37:21;99422.81;;;5.44;46.98
10310;BME280;5200;43.236;27.986;2024-01-15T06:39:48;99421.13;;;5.55;46.93
10310;BME280;5200;43.236;27.986;2024-01-15T06:42:16;99421.25;;;5.64;46.09
10310;BME280;5200;43.236;27.986;2024-01-15T06:44:43;99419.13;;;5.69;46.10
10310;BME280;5200;43.236;27.986;2024-01-15T06:47:10;99419.34;;;5.78;46.06
10310;BME280;5200;43.236;27.986;2024-01-15T06:49:37;99429.41;;;5.82;45.66
10310;BME280;5200;43.236;27.986;2024-01-15T06:52:04;99428.25;;;5.98;45.41
10310;BME280;5200;43.236;27.986;2024-01-15T06:54:31;99417.00;;;6.18;45.92
10310;BME280;5200;43.236;27.986;2024-01-15T06:56:58;99417.66;;;6.43;45.11
10310;BME280;5200;43.236;27.986;2024-01-15T06:59:26;99403.50;;;6.66;44.04
10310;BME280;5200;43.236;27.986;2024-01-15T07:01:53;99407.75;;;6.88;43.58
10310;BME280;5200;43.236;27.986;2024-01-15T07:04:20;99408.72;;;7.08;42.82
10310;BME280;5200;43.236;27.986;2024-01-15T07:06:47;99417.91;;;7.33;43.30
10310;BME280;5200;43.236;27.986;2024-01-15T07:09:14;99415.66;;;7.59;42.19
10310;BME280;5200;43.236;27.986;2024-01-15T07:11:44;99413.13;;;7.79;41.17
10310;BME280;5200;43.236;27.986;2024-01-15T07:14:13;99413.84;;;8.00;41.89
10310;BME280;5200;43.236;27.986;2024-01-15T07:16:41;99409.31;;;8.22;40.76
10310;BME280;5200;43.236;27.986;2024-01-15T07:19:08;99404.63;;;8.35;39.75
10310;BME280;5200;43.236;27.986;2024-01-15T07:21:36;99411.13;;;8.51;40.10
10310;BME280;5200;43.236;27.986;2024-01-15T07:24:05;99405.19;;;8.68;39.94
10310;BME280;5200;43.236;27.986;2024-01-15T07:26:32;99411.78;;;8.92;39.42
10310;BME280;5200;43.236;27.986;2024-01-15T07:28:58;99413.66;;;9.09;38.24
10310;BME280;5200;43.236;27.986;2024-01-15T07:31:26;99408.38;;;9.19;38.51
10310;BME280;5200;43.236;27.986;2024-01-15T07:33:54;99407.09;;;9.32;37.97
10310;BME280;5200;43.236;27.986;2024-01-15T07:36:21;99411.19;;;9.45;38.10
10310;BME280;5200;43.236;27.986;2024-01-15T07:38:48;99397.56;;;9.59;37.58
10310;BME280;5200;43.236;27.986;2024-01-15T07:41:15;99385.81;;;9.63;36.61
10310;BME280;5200;43.236;27.986;2024-01-15T07:43:41;99388.81;;;9.68;36.86
10310;BME280;5200;43.236;27.986;2024-01-15T07:46:10;99397.38;;;9.70;36.34
10310;BME280;5200;43.236;27.986;2024-01-15T07:48:37;99389.66;;;9.69;36.35
10310;BME280;5200;43.236;27.986;2024-01-15T07:51:05;99392.44;;;9.67;35.86
10310;BME280;5200;43.236;27.986;2024-01-15T07:53:32;99401.44;;;9.65;36.29
10310;BME280;5200;43.236;27.986;2024-01-15T07:55:59;99392.91;;;9.53;36.29
10310;BME280;5200;43.236;27.986;2024-01-15T07:58:26;99388.41;;;9.45;36.33
10310;BME280;5200;43.236;27.986;2024-01-15T08:00:53;99395.91;;;9.30;36.21
10310;BME280;5200;43.236;27.986;2024-01-15T08:03:19;99388.84;;;9.31;36.48
10310;BME280;5200;43.236;27.986;2024-01-15T08:05:46;99402.16;;;9.29;37.19
10310;BME280;5200;43.236;27.986;2024-01-15T08:08:17;99387.09;;;9.22;37.33
10310;BME280;5200;43.236;27.986;2024-01-15T08:10:44;99392.13;;;9.15;37.41
10310;BME280;5200;43.236;27.986;2024-01-15T08:13:11;99396.41;;;9.06;37.53
10310;BME280;5200;43.236;27.986;2024-01-15T08:15:38;99401.09;;;9.03;37.68
10310;BME280;5200;43.236;27.986;2024-01-15T08:18:05;99401.00;;;8.95;38.27
10310;BME280;5200;43.236;27.986;2024-01-15T08:20:32;99398.53;;;8.83;38.65
10310;BME280;5200;43.236;27.986;2024-01-15T08:22:59;99399.81;;;8.60;39.43
10310;BME280;5200;43.236;27.986;2024-01-15T08:25:27;99384.50;;;8.45;40.29
10310;BME280;5200;43.236;27.986;2024-01-15T08:27:54;99411.28;;;8.49;41.23
10310;BME280;5200;43.236;27.986;2024-01-15T08:30:20;99402.88;;;8.45;42.43
10310;BME280;5200;43.236;27.986;2024-01-15T08:32:50;99396.50;;;8.48;42.86
10310;BME280;5200;43.236;27.986;2024-01-15T08:35:17;99391.28;;;8.48;43.86
10310;BME280;5200;43.236;27.986;2024-01-15T08:37:48;99397.78;;;8.54;44.59
10310;BME280;5200;43.236;27.986;2024-01-15T08:40:15;99405.75;;;8.62;44.49
10310;BME280;5200;43.236;27.986;2024-01-15T08:42:43;99404.94;;;8.61;45.71
10310;BME280;5200;43.236;27.986;2024-01-15T08:45:11;99409.34;;;8.61;46.70
10310;BME280;5200;43.236;27.986;2024-01-15T08:47:38;99405.06;;;8.60;47.63
10310;BME280;5200;43.236;27.986;2024-01-15T08:50:06;99413.22;;;8.57;48.16
10310;BME280;5200;43.236;27.986;2024-01-15T08:52:35;99404.94;;;8.42;49.61
10310;BME280;5200;43.236;27.986;2024-01-15T08:55:03;99390.84;;;8.33;49.47
10310;BME280;5200;43.236;27.986;2024-01-15T08:57:32;99393.03;;;8.38;50.95
10310;BME280;5200;43.236;27.986;2024-01-15T08:59:59;99387.66;;;8.39;51.83
10310;BME280;5200;43.236;27.986;2024-01-15T09:02:26;99383.38;;;8.38;52.16
10310;BME280;5200;43.236;27.986;2024-01-15T09:04:53;99378.44;;;8.35;51.89
10310;BME280;5200;43.236;27.986;2024-01-15T09:07:20;99371.09;;;8.29;51.87
10310;BME280;5200;43.236;27.986;2024-01-15T09:09:47;99359.13;;;8.17;51.05
10310;BME280;5200;43.236;27.986;2024-01-15T09:12:13;99359.13;;;8.07;51.52
10310;BME280;5200;43.236;27.986;2024-01-15T09:14:41;99351.66;;;8.12;50.70
10310;BME280;5200;43.236;27.986;2024-01-15T09:17:09;99340.63;;;8.09;49.93
10310;BME280;5200;43.236;27.986;2024-01-15T09:19:36;99334.00;;;8.14;50.25
10310;BME280;5200;43.236;27.986;2024-01-15T09:22:04;99332.63;;;8.20;50.13
10310;BME280;5200;43.236;27.986;2024-01-15T09:24:31;99334.69;;;8.26;50.56
10310;BME280;5200;43.236;27.986;2024-01-15T09:26:58;99330.44;;;8.44;49.88
10310;BME280;5200;43.236;27.986;2024-01-15T09:29:25;99320.34;;;8.50;50.35
10310;BME280;5200;43.236;27.986;2024-01-15T09:31:52;99322.94;;;8.59;50.58
10310;BME280;5200;43.236;27.986;2024-01-15T09:34:20;99320.59;;;8.66;50.26
10310;BME280;5200;43.236;27.986;2024-01-15T09:36:47;99315.44;;;8.74;51.28
10310;BME280;5200;43.236;27.986;2024-01-15T09:39:15;99311.13;;;8.93;50.97
10310;BME280;5200;43.236;27.986;2024-01-15T09:41:42;99311.63;;;9.06;49.81
10310;BME280;5200;43.236;27.986;2024-01-15T09:44:10;99302.63;;;9.08;49.78
10310;BME280;5200;43.236;27.986;2024-01-15T09:46:39;99298.50;;;9.06;46.77
10310;BME280;5200;43.236;27.986;2024-01-15T09:49:07;99289.69;;;8.97;46.38
10310;BME280;5200;43.236;27.986;2024-01-15T09:51:35;99283.66;;;8.87;46.00
10310;BME280;5200;43.236;27.986;2024-01-15T09:54:03;99283.50;;;8.88;45.60
10310;BME280;5200;43.236;27.986;2024-01-15T09:56:31;99271.91;;;8.91;44.77
10310;BME280;5200;43.236;27.986;2024-01-15T09:58:58;99278.38;;;8.97;44.18
10310;BME280;5200;43.236;27.986;2024-01-15T10:01:25;99273.59;;;9.10;44.58
10310;BME280;5200;43.236;27.986;2024-01-15T10:03:52;99273.78;;;9.26;44.19
10310;BME280;5200;43.236;27.986;2024-01-15T10:06:21;99276.91;;;9.40;43.75
10310;BME280;5200;43.236;27.986;2024-01-15T10:08:50;99271.88;;;9.46;43.48
10310;BME280;5200;43.236;27.986;2024-01-15T10:11:18;99266.09;;;9.43;43.64
10310;BME280;5200;43.236;27.986;2024-01-15T10:13:45;99259.19;;;9.42;44.15
10310;BME280;5200;43.236;27.986;2024-01-15T10:16:12;99263.78;;;9.40;44.20
10310;BME280;5200;43.236;27.986;2024-01-15T10:18:38;99254.78;;;9.42;45.15
10310;BME280;5200;43.236;27.986;2024-01-15T10:21:07;99228.97;;;9.38;45.27
10310;BME280;5200;43.236;27.986;2024-01-15T10:23:34;99248.03;;;9.58;45.64
10310;BME280;5200;43.236;27.986;2024-01-15T10:26:03;99233.63;;;9.44;47.82
10310;BME280;5200;43.236;27.986;2024-01-15T10:31:52;99227.44;;;9.17;53.34
10310;BME280;5200;43.236;27.986;2024-01-15T10:34:19;99220.16;;;8.83;55.06
10310;BME280;5200;43.236;27.986;2024-01-15T10:36:46;99222.03;;;8.91;56.84
10310;BME280;5200;43.236;27.986;2024-01-15T10:39:17;99218.78;;;9.07;60.02
10310;BME280;5200;43.236;27.986;2024-01-15T10:41:46;99213.47;;;9.17;61.21
10310;BME280;5200;43.236;27.986;2024-01-15T10:44:12;99210.34;;;9.13;62.41
10310;BME280;5200;43.236;27.986;2024-01-15T10:46:39;99193.81;;;9.03;64.25
10310;BME280;5200;43.236;27.986;2024-01-15T10:49:07;99197.09;;;8.87;67.17
10310;BME280;5200;43.236;27.986;2024-01-15T10:51:34;99182.31;;;8.86;68.59
10310;BME280;5200;43.236;27.986;2024-01-15T10:54:01;99182.06;;;8.79;70.04
10310;BME280;5200;43.236;27.986;2024-01-15T10:56:30;99163.63;;;8.71;70.79
10310;BME280;5200;43.236;27.986;2024-01-15T10:58:59;99169.38;;;8.84;72.45
10310;BME280;5200;43.236;27.986;2024-01-15T11:01:26;99167.81;;;8.92;71.68
10310;BME280;5200;43.236;27.986;2024-01-15T11:03:55;99160.22;;;8.88;73.09
10310;BME280;5200;43.236;27.986;2024-01-15T11:06:24;99147.59;;;8.74;74.55
10310;BME280;5200;43.236;27.986;2024-01-15T11:08:52;99153.44;;;8.68;76.15
10310;BME280;5200;43.236;27.986;2024-01-15T11:11:21;99138.34;;;8.52;78.64
10310;BME280;5200;43.236;27.986;2024-01-15T11:13:48;99144.25;;;8.54;80.27
10310;BME280;5200;43.236;27.986;2024-01-15T11:16:18;99138.84;;;8.56;83.50
10310;BME280;5200;43.236;27.986;2024-01-15T11:19:02;99131.66;;;8.40;86.32
10310;BME280;5200;43.236;27.986;2024-01-15T11:21:31;99139.53;;;8.30;87.83
10310;BME280;5200;43.236;27.986;2024-01-15T11:23:59;99135.13;;;8.21;88.41
10310;BME280;5200;43.236;27.986;2024-01-15T11:26:31;99132.41;;;8.13;89.06
10310;BME280;5200;43.236;27.986;2024-01-15T11:29:00;99123.75;;;8.02;91.73
10310;BME280;5200;43.236;27.986;2024-01-15T11:31:55;99129.09;;;8.11;91.32
10310;BME280;5200;43.236;27.986;2024-01-15T11:34:17;99132.72;;;8.00;93.05
10310;BME280;5200;43.236;27.986;2024-01-15T11:37:01;99124.00;;;7.99;95.56
10310;BME280;5200;43.236;27.986;2024-01-15T11:39:41;99120.03;;;8.05;96.20
10310;BME280;5200;43.236;27.986;2024-01-15T11:42:13;99116.34;;;7.88;99.09
10310;BME280;5200;43.236;27.986;2024-01-15T11:44:41;99111.28;;;7.77;100.00
10310;BME280;5200;43.236;27.986;2024-01-15T11:47:10;99117.34;;;7.68;100.00
10310;BME280;5200;43.236;27.986;2024-01-15T11:49:58;99117.91;;;7.61;100.00
10310;BME280;5200;43.236;27.986;2024-01-15T11:52:25;99120.00;;;7.58;100.00
10310;BME280;5200;43.236;27.986;2024-01-15T11:54:55;99103.88;;;7.62;100.00
10310;BME280;5200;43.236;27.986;2024-01-15T11:57:29;99108.56;;;7.49;100.00
10310;BME280;5200;43.236;27.986;2024-01-15T11:59:59;99111.88;;;7.51;100.00
10310;BME280;5200;43.236;27.986;2024-01-15T12:02:27;99106.06;;;7.48;100.00
10310;BME280;5200;43.236;27.986;2024-01-15T12:04:54;99100.31;;;7.44;100.00
10310;BME280;5200;43.236;27.986;2024-01-15T12:07:22;99089.84;;;7.34;100.00
10310;BME280;5200;43.236;27.986;2024-01-15T12:09:49;99089.44;;;7.29;100.00
10310;BME280;5200;43.236;27.986;2024-01-15T12:12:22;99095.91;;;7.35;100.00
10310;BME280;5200;43.236;27.986;2024-01-15T12:14:51;99081.03;;;7.26;100.00
10310;BME280;5200;43.236;27.986;2024-01-15T12:17:18;99085.03;;;7.30;100.00
10310;BME280;5200;43.236;27.986;2024-01-15T12:19:46;99087.38;;;7.33;100.00
10310;BME280;5200;43.236;27.986;2024-01-15T12:22:13;99075.94;;;7.34;100.00
10310;BME280;5200;43.236;27.986;2024-01-15T12:24:40;99082.81;;;7.35;100.00
10310;BME280;5200;43.236;27.986;2024-01-15T12:27:08;99078.00;;;7.30;100.00
10310;BME280;5200;43.236;27.986;2024-01-15T12:29:35;99076.63;;;7.26;100.00
10310;BME280;5200;43.236;27.986;2024-01-15T12:32:02;99078.00;;;7.30;100.00
10310;BME280;5200;43.236;27.986;2024-01-15T12:34:29;99070.56;;;7.26;100.00
10310;BME280;5200;43.236;27.986;2024-01-15T12:36:58;99067.84;;;7.27;100.00
10310;BME280;5200;43.236;27.986;2024-01-15T12:39:25;99063.84;;;7.23;100.00
10310;BME280;5200;43.236;27.986;2024-01-15T12:41:52;99059.56;;;7.12;100.00
10310;BME280;5200;43.236;27.986;2024-01-15T12:44:18;99046.66;;;7.01;100.00
10310;BME280;5200;43.236;27.986;2024-01-15T12:46:45;99049.66;;;7.06;100.00
10310;BME280;5200;43.236;27.986;2024-01-15T12:49:13;99064.53;;;7.06;100.00
10310;BME280;5200;43.236;27.986;2024-01-15T12:51:39;99056.00;;;7.04;100.00
10310;BME280;5200;43.236;27.986;2024-01-15T12:54:08;99046.91;;;7.08;100.00
10310;BME280;5200;43.236;27.986;2024-01-15T12:56:34;99058.22;;;7.08;100.00
10310;BME280;5200;43.236;27.986;2024-01-15T12:59:01;99045.81;;;7.01;100.00
10310;BME280;5200;43.236;27.986;2024-01-15T13:01:28;99043.59;;;6.96;100.00
10310;BME280;5200;43.236;27.986;2024-01-15T13:03:55;99037.56;;;6.86;100.00
10310;BME280;5200;43.236;27.986;2024-01-15T13:06:22;99046.50;;;6.83;100.00
10310;BME280;5200;43.236;27.986;2024-01-15T13:08:49;99051.16;;;6.80;100.00
10310;BME280;5200;43.236;27.986;2024-01-15T13:11:17;99044.97;;;6.81;100.00
10310;BME280;5200;43.236;27.986;2024-01-15T13:13:44;99046.09;;;6.88;100.00
10310;BME280;5200;43.236;27.986;2024-01-15T13:16:11;99043.59;;;6.96;100.00